createdAt,value
2022-08-22T00:00:53.385Z,76.15
2022-08-22T00:01:53.392Z,75.79
2022-08-22T00:02:42.672Z,60.06
2022-08-22T00:02:42.774Z,59.56
2022-08-22T00:02:44.022Z,68.08
2022-08-22T00:03:00.233Z,52.29
2022-08-22T00:03:02.257Z,61.52
2022-08-22T00:03:10.195Z,65.90
2022-08-22T00:03:12.378Z,55.89
2022-08-22T00:03:17.627Z,76.23
2022-08-22T00:03:55.361Z,76.63
2022-08-22T00:04:53.346Z,77.44
2022-08-22T00:05:53.338Z,77.44
2022-08-22T00:06:53.325Z,77.30
2022-08-22T00:07:53.329Z,77.44
2022-08-22T00:08:54.317Z,77.14
2022-08-22T00:09:53.346Z,77.54
2022-08-22T00:10:53.302Z,77.84
2022-08-22T00:11:53.275Z,77.24
2022-08-22T00:12:53.260Z,77.64
2022-08-22T00:14:01.822Z,77.78
2022-08-22T00:14:55.270Z,77.64
2022-08-22T00:15:53.253Z,77.88
2022-08-22T00:16:53.503Z,78.05
2022-08-22T00:17:53.373Z,78.59
2022-08-22T00:18:53.215Z,78.19
2022-08-22T00:19:53.201Z,78.39
2022-08-22T00:20:54.214Z,79.20
2022-08-22T00:21:53.182Z,79.00
2022-08-22T00:22:53.177Z,78.45
2022-08-22T00:23:53.173Z,78.39
2022-08-22T00:24:53.154Z,78.66
2022-08-22T00:25:53.151Z,77.95
2022-08-22T00:26:53.130Z,77.75
2022-08-22T00:27:53.117Z,77.95
2022-08-22T00:28:53.131Z,78.05
2022-08-22T00:29:53.097Z,77.95
2022-08-22T00:30:53.086Z,77.84
2022-08-22T00:31:53.085Z,77.54
2022-08-22T00:32:53.071Z,77.64
2022-08-22T00:33:53.075Z,78.35
2022-08-22T00:34:53.081Z,78.55
2022-08-22T00:35:53.052Z,78.05
2022-08-22T00:36:53.097Z,77.75
2022-08-22T00:37:54.063Z,77.95
2022-08-22T00:38:53.015Z,78.08
2022-08-22T00:39:53.044Z,78.05
2022-08-22T00:40:52.995Z,78.25
2022-08-22T00:41:52.976Z,78.05
2022-08-22T00:42:52.988Z,78.08
2022-08-22T00:43:52.950Z,78.45
2022-08-22T00:44:53.962Z,77.84
2022-08-22T00:45:52.938Z,78.45
2022-08-22T00:46:53.027Z,77.95
2022-08-22T00:47:52.960Z,78.05
2022-08-22T00:48:52.911Z,77.75
2022-08-22T00:49:52.932Z,78.45
2022-08-22T00:50:52.902Z,78.05
2022-08-22T00:51:52.869Z,78.25
2022-08-22T00:52:52.879Z,78.25
2022-08-22T00:53:52.869Z,78.79
2022-08-22T00:54:52.848Z,78.59
2022-08-22T00:55:52.886Z,78.08
2022-08-22T00:56:53.049Z,78.28
2022-08-22T00:57:52.889Z,78.39
2022-08-22T00:58:52.859Z,79.20
2022-08-22T00:59:52.810Z,78.69
2022-08-22T01:00:52.820Z,79.24
2022-08-22T01:01:52.791Z,78.89
2022-08-22T01:02:53.062Z,79.10
2022-08-22T01:04:24.680Z,79.00
2022-08-22T01:04:52.746Z,78.79
2022-08-22T01:05:52.736Z,78.79
2022-08-22T01:06:52.732Z,78.93
2022-08-22T01:07:52.808Z,78.93
2022-08-22T01:08:52.719Z,79.13
2022-08-22T01:09:52.693Z,79.13
2022-08-22T01:10:52.694Z,79.54
2022-08-22T01:11:52.672Z,79.74
2022-08-22T01:12:52.665Z,79.85
2022-08-22T01:13:52.689Z,79.68
2022-08-22T01:14:52.655Z,79.58
2022-08-22T01:15:52.637Z,79.98
2022-08-22T01:16:52.626Z,80.19
2022-08-22T01:17:52.642Z,80.49
2022-08-22T01:18:52.626Z,80.59
2022-08-22T01:19:52.623Z,80.49
2022-08-22T01:20:52.604Z,80.79
2022-08-22T01:21:52.610Z,80.79
2022-08-22T01:22:52.599Z,80.90
2022-08-22T01:23:52.556Z,80.83
2022-08-22T01:24:52.548Z,80.63
2022-08-22T01:25:52.554Z,80.73
2022-08-22T01:26:52.552Z,80.73
2022-08-22T01:27:52.667Z,80.93
2022-08-22T01:28:52.535Z,80.43
2022-08-22T01:29:52.509Z,80.93
2022-08-22T01:30:52.487Z,80.83
2022-08-22T01:31:52.499Z,80.93
2022-08-22T01:32:57.139Z,80.93
2022-08-22T01:33:52.490Z,81.13
2022-08-22T01:34:52.461Z,80.87
2022-08-22T01:35:52.435Z,81.38
2022-08-22T01:36:52.449Z,80.93
2022-08-22T01:37:52.433Z,81.13
2022-08-22T01:38:52.424Z,81.04
2022-08-22T01:39:52.465Z,81.68
2022-08-22T01:40:53.731Z,81.34
2022-08-22T01:41:52.377Z,81.34
2022-08-22T01:42:52.373Z,80.73
2022-08-22T01:44:00.728Z,81.04
2022-08-22T01:44:53.368Z,80.83
2022-08-22T01:45:52.356Z,80.63
2022-08-22T01:46:52.328Z,80.73
2022-08-22T01:47:54.237Z,80.83
2022-08-22T01:48:52.303Z,80.83
2022-08-22T01:49:52.318Z,80.83
2022-08-22T01:50:52.289Z,80.93
2022-08-22T01:51:52.287Z,81.24
2022-08-22T01:52:52.271Z,81.44
2022-08-22T01:53:52.271Z,81.34
2022-08-22T01:54:52.274Z,81.44
2022-08-22T01:55:52.250Z,80.53
2022-08-22T01:56:52.233Z,80.63
2022-08-22T01:57:52.269Z,80.73
2022-08-22T01:58:52.218Z,80.63
2022-08-22T01:59:52.217Z,80.83
2022-08-22T02:00:52.248Z,81.27
2022-08-22T02:01:52.177Z,81.48
2022-08-22T02:02:52.180Z,81.48
2022-08-22T02:03:52.152Z,81.82
2022-08-22T02:04:52.168Z,81.82
2022-08-22T02:05:52.155Z,81.88
2022-08-22T02:06:52.158Z,81.88
2022-08-22T02:07:52.220Z,81.52
2022-08-22T02:08:52.112Z,81.62
2022-08-22T02:09:52.099Z,81.68
2022-08-22T02:10:52.089Z,82.03
2022-08-22T02:11:52.084Z,82.43
2022-08-22T02:12:52.091Z,81.62
2022-08-22T02:13:52.056Z,82.03
2022-08-22T02:14:52.075Z,81.92
2022-08-22T02:15:52.040Z,81.82
2022-08-22T02:16:52.032Z,81.82
2022-08-22T02:17:52.018Z,81.82
2022-08-22T02:18:52.006Z,82.26
2022-08-22T02:19:52.028Z,81.96
2022-08-22T02:20:52.006Z,82.47
2022-08-22T02:21:52.007Z,82.81
2022-08-22T02:22:51.983Z,83.28
2022-08-22T02:23:51.963Z,83.18
2022-08-22T02:24:51.958Z,82.78
2022-08-22T02:25:51.971Z,82.84
2022-08-22T02:26:51.939Z,82.84
2022-08-22T02:27:51.936Z,82.57
2022-08-22T02:28:57.422Z,82.43
2022-08-22T02:29:52.933Z,82.12
2022-08-22T02:30:51.940Z,82.12
2022-08-22T02:31:51.875Z,81.92
2022-08-22T02:32:51.869Z,82.03
2022-08-22T02:33:51.887Z,82.43
2022-08-22T02:34:51.864Z,81.66
2022-08-22T02:35:51.866Z,81.96
2022-08-22T02:36:51.844Z,82.06
2022-08-22T02:37:51.827Z,82.06
2022-08-22T02:38:51.826Z,81.66
2022-08-22T02:39:51.871Z,82.17
2022-08-22T02:40:51.806Z,81.96
2022-08-22T02:41:51.780Z,82.87
2022-08-22T02:42:51.778Z,82.87
2022-08-22T02:43:51.760Z,83.69
2022-08-22T02:44:51.766Z,82.92
2022-08-22T02:45:51.745Z,82.47
2022-08-22T02:46:51.724Z,82.26
2022-08-22T02:47:51.785Z,82.67
2022-08-22T02:48:51.733Z,82.47
2022-08-22T02:49:51.722Z,82.47
2022-08-22T02:50:51.693Z,82.47
2022-08-22T02:51:51.678Z,82.57
2022-08-22T02:52:51.691Z,83.08
2022-08-22T02:53:51.671Z,82.57
2022-08-22T02:54:51.649Z,82.78
2022-08-22T02:55:51.644Z,83.28
2022-08-22T02:56:51.654Z,83.59
2022-08-22T02:57:51.648Z,83.28
2022-08-22T02:58:51.637Z,82.98
2022-08-22T02:59:51.598Z,82.37
2022-08-22T03:00:51.614Z,82.17
2022-08-22T03:01:51.632Z,81.96
2022-08-22T03:02:52.578Z,81.45
2022-08-22T03:03:51.606Z,81.96
2022-08-22T03:04:51.554Z,82.20
2022-08-22T03:05:51.543Z,82.31
2022-08-22T03:06:51.549Z,82.61
2022-08-22T03:07:51.536Z,82.85
2022-08-22T03:08:51.507Z,83.67
2022-08-22T03:09:51.509Z,83.46
2022-08-22T03:10:51.511Z,83.56
2022-08-22T03:11:51.505Z,83.36
2022-08-22T03:12:54.710Z,83.36
2022-08-22T03:13:52.457Z,83.36
2022-08-22T03:14:51.442Z,83.36
2022-08-22T03:15:51.439Z,83.46
2022-08-22T03:16:51.488Z,83.46
2022-08-22T03:17:51.410Z,83.62
2022-08-22T03:18:51.416Z,83.76
2022-08-22T03:19:51.402Z,83.67
2022-08-22T03:20:51.399Z,83.56
2022-08-22T03:21:51.413Z,83.67
2022-08-22T03:22:51.372Z,83.36
2022-08-22T03:23:51.370Z,83.56
2022-08-22T03:24:51.354Z,83.56
2022-08-22T03:25:51.352Z,83.67
2022-08-22T03:26:51.352Z,83.67
2022-08-22T03:27:51.359Z,83.56
2022-08-22T03:28:59.041Z,84.68
2022-08-22T03:29:52.309Z,84.78
2022-08-22T03:30:51.361Z,84.17
2022-08-22T03:31:51.301Z,83.91
2022-08-22T03:32:51.311Z,84.28
2022-08-22T03:33:51.266Z,83.81
2022-08-22T03:34:51.260Z,83.91
2022-08-22T03:35:51.259Z,84.07
2022-08-22T03:36:51.234Z,84.48
2022-08-22T03:37:51.241Z,84.72
2022-08-22T03:38:51.224Z,84.01
2022-08-22T03:39:51.347Z,84.42
2022-08-22T03:40:51.222Z,84.21
2022-08-22T03:41:51.194Z,84.21
2022-08-22T03:42:51.202Z,84.72
2022-08-22T03:43:51.180Z,84.11
2022-08-22T03:44:51.177Z,84.72
2022-08-22T03:45:51.184Z,84.52
2022-08-22T03:46:51.160Z,83.81
2022-08-22T03:47:51.138Z,83.70
2022-08-22T03:48:51.142Z,83.29
2022-08-22T03:49:51.141Z,84.01
2022-08-22T03:50:51.115Z,84.11
2022-08-22T03:51:51.114Z,84.21
2022-08-22T03:52:51.096Z,84.11
2022-08-22T03:53:51.101Z,84.01
2022-08-22T03:54:51.093Z,84.52
2022-08-22T03:55:51.063Z,84.66
2022-08-22T03:56:54.069Z,83.64
2022-08-22T03:57:52.071Z,84.86
2022-08-22T03:58:51.029Z,84.82
2022-08-22T03:59:51.051Z,84.66
2022-08-22T04:00:51.045Z,83.74
2022-08-22T04:01:52.019Z,84.15
2022-08-22T04:02:50.981Z,84.56
2022-08-22T04:03:51.995Z,84.76
2022-08-22T04:04:50.988Z,85.06
2022-08-22T04:05:51.014Z,85.17
2022-08-22T04:06:53.745Z,85.47
2022-08-22T04:07:51.942Z,85.47
2022-08-22T04:08:50.967Z,85.17
2022-08-22T04:09:50.923Z,85.33
2022-08-22T04:10:50.915Z,85.33
2022-08-22T04:11:50.908Z,85.27
2022-08-22T04:12:50.906Z,85.58
2022-08-22T04:13:50.913Z,86.29
2022-08-22T04:14:50.888Z,86.29
2022-08-22T04:15:50.877Z,86.29
2022-08-22T04:16:50.937Z,86.29
2022-08-22T04:17:50.882Z,85.94
2022-08-22T04:18:50.868Z,85.23
2022-08-22T04:19:50.826Z,85.64
2022-08-22T04:20:50.819Z,85.23
2022-08-22T04:21:50.814Z,85.33
2022-08-22T04:22:50.818Z,85.33
2022-08-22T04:23:50.803Z,85.23
2022-08-22T04:24:52.127Z,85.23
2022-08-22T04:25:50.780Z,85.13
2022-08-22T04:26:50.758Z,84.92
2022-08-22T04:27:50.824Z,85.13
2022-08-22T04:28:50.759Z,85.23
2022-08-22T04:29:50.735Z,84.92
2022-08-22T04:30:50.721Z,85.03
2022-08-22T04:31:50.718Z,85.03
2022-08-22T04:32:50.732Z,85.03
2022-08-22T04:33:50.702Z,84.62
2022-08-22T04:34:50.681Z,84.17
2022-08-22T04:35:50.686Z,84.28
2022-08-22T04:36:50.746Z,84.21
2022-08-22T04:37:50.678Z,84.52
2022-08-22T04:38:50.640Z,85.03
2022-08-22T04:39:50.712Z,84.62
2022-08-22T04:40:50.634Z,84.42
2022-08-22T04:41:50.657Z,84.82
2022-08-22T04:42:50.608Z,84.72
2022-08-22T04:43:50.610Z,85.06
2022-08-22T04:44:50.624Z,85.33
2022-08-22T04:45:50.580Z,85.03
2022-08-22T04:46:50.565Z,84.52
2022-08-22T04:47:54.395Z,84.62
2022-08-22T04:48:50.555Z,83.46
2022-08-22T04:49:50.555Z,82.87
2022-08-22T04:50:50.548Z,80.97
2022-08-22T04:51:50.522Z,79.07
2022-08-22T04:52:50.514Z,77.48
2022-08-22T04:53:50.535Z,75.28
2022-08-22T04:54:50.491Z,73.59
2022-08-22T04:55:50.479Z,72.34
2022-08-22T04:56:50.476Z,71.30
2022-08-22T04:57:50.461Z,69.52
2022-08-22T04:58:50.471Z,69.08
2022-08-22T04:59:50.442Z,67.43
2022-08-22T05:00:50.440Z,66.06
2022-08-22T05:01:50.538Z,65.86
2022-08-22T05:02:50.426Z,65.66
2022-08-22T05:03:50.408Z,65.66
2022-08-22T05:04:50.414Z,65.79
2022-08-22T05:05:50.427Z,65.86
2022-08-22T05:06:50.385Z,65.36
2022-08-22T05:07:50.370Z,65.16
2022-08-22T05:08:53.761Z,65.02
2022-08-22T05:09:50.358Z,65.36
2022-08-22T05:10:50.364Z,64.82
2022-08-22T05:11:50.359Z,64.22
2022-08-22T05:12:50.349Z,64.79
2022-08-22T05:13:50.314Z,63.15
2022-08-22T05:14:50.335Z,63.25
2022-08-22T05:15:50.299Z,62.19
2022-08-22T05:16:50.289Z,60.96
2022-08-22T05:17:50.323Z,60.96
2022-08-22T05:18:50.296Z,60.69
2022-08-22T05:19:50.271Z,59.79
2022-08-22T05:20:50.252Z,59.06
2022-08-22T05:21:50.257Z,58.16
2022-08-22T05:22:50.239Z,58.03
2022-08-22T05:23:50.249Z,57.93
2022-08-22T05:24:50.232Z,57.63
2022-08-22T05:25:50.212Z,57.80
2022-08-22T05:26:50.185Z,56.80
2022-08-22T05:27:53.268Z,57.48
2022-08-22T05:28:53.081Z,56.17
2022-08-22T05:29:51.180Z,55.94
2022-08-22T05:30:50.153Z,56.45
2022-08-22T05:31:50.151Z,56.77
2022-08-22T05:32:50.145Z,56.77
2022-08-22T05:33:50.128Z,56.27
2022-08-22T05:34:51.410Z,56.65
2022-08-22T05:35:53.406Z,56.55
2022-08-22T05:36:52.107Z,56.05
2022-08-22T05:37:50.101Z,56.15
2022-08-22T05:38:50.079Z,56.35
2022-08-22T05:39:50.109Z,55.74
2022-08-22T05:40:50.082Z,55.72
2022-08-22T05:41:50.042Z,55.52
2022-08-22T05:42:50.046Z,54.90
2022-08-22T05:43:50.026Z,54.60
2022-08-22T05:44:50.017Z,54.67
2022-08-22T05:45:50.019Z,54.14
2022-08-22T05:46:50.022Z,53.74
2022-08-22T05:47:49.994Z,53.92
2022-08-22T05:48:49.975Z,53.64
2022-08-22T05:49:49.982Z,53.34
2022-08-22T05:50:51.052Z,53.52
2022-08-22T05:51:49.981Z,52.89
2022-08-22T05:52:49.933Z,52.99
2022-08-22T05:53:49.936Z,52.67
2022-08-22T05:54:49.912Z,51.54
2022-08-22T05:55:49.910Z,51.37
2022-08-22T05:56:49.892Z,51.87
2022-08-22T05:57:49.899Z,51.27
2022-08-22T05:58:49.896Z,51.47
2022-08-22T05:59:49.867Z,51.65
2022-08-22T06:00:49.879Z,50.82
2022-08-22T06:01:49.868Z,51.03
2022-08-22T06:02:49.878Z,50.65
2022-08-22T06:03:49.825Z,51.25
2022-08-22T06:04:49.818Z,51.22
2022-08-22T06:05:49.814Z,50.62
2022-08-22T06:06:49.797Z,50.95
2022-08-22T06:07:49.813Z,50.52
2022-08-22T06:08:49.785Z,50.52
2022-08-22T06:09:49.782Z,51.00
2022-08-22T06:10:49.767Z,50.87
2022-08-22T06:11:51.642Z,50.90
2022-08-22T06:12:49.737Z,51.07
2022-08-22T06:13:49.729Z,50.98
2022-08-22T06:14:49.745Z,51.57
2022-08-22T06:15:49.710Z,50.25
2022-08-22T06:16:49.704Z,50.75
2022-08-22T06:17:49.701Z,49.73
2022-08-22T06:18:49.694Z,49.23
2022-08-22T06:19:49.707Z,48.64
2022-08-22T06:20:49.658Z,48.41
2022-08-22T06:21:49.667Z,48.79
2022-08-22T06:22:49.639Z,47.87
2022-08-22T06:23:49.634Z,48.57
2022-08-22T06:24:49.649Z,47.28
2022-08-22T06:25:49.617Z,47.67
2022-08-22T06:26:49.632Z,47.67
2022-08-22T06:27:49.603Z,47.08
2022-08-22T06:28:55.035Z,48.47
2022-08-22T06:29:50.582Z,47.87
2022-08-22T06:30:49.571Z,48.07
2022-08-22T06:31:49.585Z,47.67
2022-08-22T06:32:59.298Z,48.54
2022-08-22T06:33:50.558Z,48.65
2022-08-22T06:34:49.529Z,47.03
2022-08-22T06:35:49.541Z,47.43
2022-08-22T06:36:49.520Z,46.31
2022-08-22T06:37:49.551Z,46.49
2022-08-22T06:38:49.516Z,46.49
2022-08-22T06:39:49.532Z,45.08
2022-08-22T06:40:49.507Z,46.69
2022-08-22T06:41:49.465Z,45.65
2022-08-22T06:42:49.451Z,44.84
2022-08-22T06:43:49.441Z,44.84
2022-08-22T06:44:49.434Z,46.25
2022-08-22T06:45:49.452Z,46.45
2022-08-22T06:46:49.425Z,46.57
2022-08-22T06:47:50.196Z,46.98
2022-08-22T06:48:49.458Z,48.10
2022-08-22T06:49:49.412Z,47.49
2022-08-22T06:50:49.390Z,47.19
2022-08-22T06:51:49.384Z,46.27
2022-08-22T06:52:49.371Z,46.67
2022-08-22T06:53:49.360Z,46.64
2022-08-22T06:54:49.374Z,45.53
2022-08-22T06:55:49.342Z,44.42
2022-08-22T06:56:49.354Z,44.42
2022-08-22T06:57:49.445Z,44.60
2022-08-22T06:58:49.316Z,42.80
2022-08-22T06:59:49.306Z,44.75
2022-08-22T07:00:53.551Z,43.27
2022-08-22T07:01:51.336Z,43.45
2022-08-22T07:02:49.297Z,42.46
2022-08-22T07:04:21.177Z,43.43
2022-08-22T07:04:49.273Z,42.66
2022-08-22T07:05:49.286Z,41.97
2022-08-22T07:06:49.253Z,43.25
2022-08-22T07:07:49.267Z,42.34
2022-08-22T07:08:49.243Z,44.04
2022-08-22T07:09:49.224Z,42.66
2022-08-22T07:10:49.216Z,43.55
2022-08-22T07:11:49.195Z,41.67
2022-08-22T07:12:49.223Z,41.99
2022-08-22T07:13:49.198Z,41.57
2022-08-22T07:14:49.204Z,41.77
2022-08-22T07:15:49.184Z,41.73
2022-08-22T07:16:49.183Z,42.00
2022-08-22T07:17:49.201Z,40.61
2022-08-22T07:18:49.175Z,41.47
2022-08-22T07:19:49.143Z,41.00
2022-08-22T07:20:49.131Z,41.02
2022-08-22T07:21:49.156Z,42.00
2022-08-22T07:22:49.113Z,40.41
2022-08-22T07:23:49.109Z,40.69
2022-08-22T07:24:49.087Z,40.78
2022-08-22T07:25:49.092Z,40.09
2022-08-22T07:26:49.089Z,39.68
2022-08-22T07:27:49.108Z,40.76
2022-08-22T07:28:51.493Z,39.60
2022-08-22T07:29:49.048Z,40.39
2022-08-22T07:30:49.032Z,40.58
2022-08-22T07:31:49.062Z,40.66
2022-08-22T07:32:49.037Z,40.27
2022-08-22T07:33:49.010Z,40.08
2022-08-22T07:34:49.020Z,41.55
2022-08-22T07:35:53.427Z,41.17
2022-08-22T07:36:49.059Z,41.20
2022-08-22T07:37:49.082Z,41.77
2022-08-22T07:38:49.069Z,40.37
2022-08-22T07:39:49.002Z,40.96
2022-08-22T07:40:48.952Z,40.78
2022-08-22T07:41:48.935Z,40.88
2022-08-22T07:42:48.936Z,40.00
2022-08-22T07:43:48.940Z,40.92
2022-08-22T07:44:48.927Z,42.24
2022-08-22T07:45:48.911Z,42.76
2022-08-22T07:46:49.082Z,43.45
2022-08-22T07:47:49.851Z,43.92
2022-08-22T07:49:08.179Z,42.93
2022-08-22T07:49:50.881Z,43.41
2022-08-22T07:50:48.864Z,42.20
2022-08-22T07:51:48.872Z,41.59
2022-08-22T07:52:48.856Z,40.80
2022-08-22T07:53:48.916Z,41.75
2022-08-22T07:54:48.848Z,40.25
2022-08-22T07:55:49.872Z,40.05
2022-08-22T07:56:48.825Z,40.43
2022-08-22T07:57:48.812Z,40.55
2022-08-22T07:58:48.802Z,40.05
2022-08-22T07:59:48.784Z,41.33
2022-08-22T08:00:48.799Z,39.76
2022-08-22T08:01:48.845Z,41.16
2022-08-22T08:02:49.759Z,40.35
2022-08-22T08:03:48.747Z,39.66
2022-08-22T08:04:48.730Z,39.64
2022-08-22T08:05:48.758Z,38.84
2022-08-22T08:06:48.723Z,39.13
2022-08-22T08:07:48.718Z,40.21
2022-08-22T08:08:48.703Z,40.80
2022-08-22T08:09:48.702Z,39.54
2022-08-22T08:10:48.710Z,39.25
2022-08-22T08:11:48.677Z,40.53
2022-08-22T08:12:54.150Z,39.78
2022-08-22T08:13:49.666Z,40.08
2022-08-22T08:14:48.660Z,39.97
2022-08-22T08:15:48.648Z,40.16
2022-08-22T08:16:48.652Z,39.76
2022-08-22T08:17:48.626Z,40.45
2022-08-22T08:18:48.713Z,39.54
2022-08-22T08:19:48.649Z,39.84
2022-08-22T08:20:48.595Z,38.93
2022-08-22T08:21:48.592Z,38.44
2022-08-22T08:22:48.581Z,37.92
2022-08-22T08:23:48.573Z,38.19
2022-08-22T08:24:48.587Z,38.09
2022-08-22T08:25:48.559Z,37.80
2022-08-22T08:26:48.549Z,37.11
2022-08-22T08:27:50.555Z,38.48
2022-08-22T08:28:48.556Z,37.29
2022-08-22T08:29:48.543Z,38.07
2022-08-22T08:30:48.521Z,38.39
2022-08-22T08:31:48.507Z,37.90
2022-08-22T08:32:48.507Z,38.58
2022-08-22T08:33:48.479Z,37.50
2022-08-22T08:34:48.491Z,38.58
2022-08-22T08:36:01.918Z,37.99
2022-08-22T08:36:50.474Z,38.50
2022-08-22T08:37:48.441Z,38.09
2022-08-22T08:38:48.468Z,38.50
2022-08-22T08:39:48.464Z,38.88
2022-08-22T08:40:48.507Z,39.07
2022-08-22T08:41:48.403Z,38.39
2022-08-22T08:42:48.395Z,38.09
2022-08-22T08:43:48.400Z,37.98
2022-08-22T08:44:48.367Z,37.11
2022-08-22T08:45:48.377Z,38.48
2022-08-22T08:46:55.508Z,37.99
2022-08-22T08:47:48.354Z,38.39
2022-08-22T08:48:48.358Z,39.29
2022-08-22T08:49:50.482Z,39.00
2022-08-22T08:50:48.328Z,37.60
2022-08-22T08:51:48.318Z,37.90
2022-08-22T08:52:52.247Z,38.09
2022-08-22T08:53:49.309Z,38.19
2022-08-22T08:54:48.290Z,38.17
2022-08-22T08:55:48.283Z,38.78
2022-08-22T08:56:48.270Z,38.27
2022-08-22T08:57:48.255Z,37.88
2022-08-22T08:58:48.804Z,37.19
2022-08-22T08:59:48.251Z,38.35
2022-08-22T09:00:48.848Z,38.54
2022-08-22T09:01:48.284Z,39.43
2022-08-22T09:02:48.209Z,37.96
2022-08-22T09:03:48.200Z,37.65
2022-08-22T09:04:48.194Z,38.06
2022-08-22T09:05:48.188Z,37.35
2022-08-22T09:07:49.245Z,38.62
2022-08-22T09:08:50.670Z,38.23
2022-08-22T09:09:52.588Z,38.43
2022-08-22T09:10:48.167Z,38.15
2022-08-22T09:11:48.144Z,37.98
2022-08-22T09:13:11.759Z,38.29
2022-08-22T09:13:49.114Z,40.25
2022-08-22T09:14:48.102Z,38.60
2022-08-22T09:15:59.661Z,39.31
2022-08-22T09:16:51.268Z,39.39
2022-08-22T09:17:48.098Z,39.76
2022-08-22T09:18:48.065Z,37.99
2022-08-22T09:19:48.098Z,38.56
2022-08-22T09:20:48.177Z,38.76
2022-08-22T09:21:48.057Z,39.47
2022-08-22T09:22:50.312Z,39.06
2022-08-22T09:23:48.033Z,39.17
2022-08-22T09:24:48.040Z,39.06
2022-08-22T09:25:48.013Z,37.88
2022-08-22T09:26:47.989Z,38.25
2022-08-22T09:27:49.019Z,38.15
2022-08-22T09:28:47.982Z,37.96
2022-08-22T09:29:54.911Z,38.45
2022-08-22T09:30:48.998Z,37.17
2022-08-22T09:31:52.576Z,37.92
2022-08-22T09:32:48.947Z,38.64
2022-08-22T09:33:47.940Z,39.23
2022-08-22T09:34:47.933Z,38.52
2022-08-22T09:35:47.945Z,38.01
2022-08-22T09:36:47.949Z,37.90
2022-08-22T09:37:48.444Z,38.58
2022-08-22T09:38:48.288Z,38.19
2022-08-22T09:39:49.478Z,38.56
2022-08-22T09:40:15.327Z,37.84
2022-08-22T09:40:47.886Z,36.90
2022-08-22T09:41:47.891Z,38.48
2022-08-22T09:42:47.866Z,37.90
2022-08-22T09:43:48.710Z,37.99
2022-08-22T09:44:47.842Z,38.07
2022-08-22T09:45:47.926Z,38.45
2022-08-22T09:46:47.922Z,37.78
2022-08-22T09:47:47.831Z,37.90
2022-08-22T09:48:47.805Z,37.99
2022-08-22T09:49:47.806Z,37.99
2022-08-22T09:50:47.821Z,37.98
2022-08-22T09:51:48.775Z,37.19
2022-08-22T09:52:47.764Z,36.52
2022-08-22T09:53:47.758Z,37.30
2022-08-22T09:54:47.739Z,37.50
2022-08-22T09:55:47.730Z,38.03
2022-08-22T09:56:47.747Z,37.54
2022-08-22T09:57:47.718Z,37.84
2022-08-22T09:58:47.719Z,37.34
2022-08-22T09:59:47.693Z,37.23
2022-08-22T10:00:47.758Z,36.74
2022-08-22T10:01:47.709Z,37.32
2022-08-22T10:02:50.256Z,37.99
2022-08-22T10:03:47.727Z,38.19
2022-08-22T10:04:47.664Z,37.50
2022-08-22T10:05:47.649Z,36.72
2022-08-22T10:06:47.635Z,36.91
2022-08-22T10:07:47.667Z,36.16
2022-08-22T10:08:48.628Z,38.05
2022-08-22T10:09:47.608Z,37.95
2022-08-22T10:10:48.604Z,36.77
2022-08-22T10:11:47.596Z,38.07
2022-08-22T10:12:47.626Z,38.36
2022-08-22T10:13:47.578Z,36.47
2022-08-22T10:14:50.463Z,36.00
2022-08-22T10:15:47.562Z,38.15
2022-08-22T10:16:47.557Z,38.26
2022-08-22T10:17:47.539Z,37.18
2022-08-22T10:18:52.846Z,38.38
2022-08-22T10:19:47.544Z,38.28
2022-08-22T10:20:47.514Z,38.28
2022-08-22T10:21:47.505Z,38.58
2022-08-22T10:22:47.488Z,38.48
2022-08-22T10:23:47.484Z,39.18
2022-08-22T10:24:47.492Z,38.10
2022-08-22T10:25:47.462Z,37.91
2022-08-22T10:26:47.465Z,37.40
2022-08-22T10:27:47.452Z,38.09
2022-08-22T10:28:47.438Z,38.28
2022-08-22T10:29:47.443Z,37.99
2022-08-22T10:30:47.414Z,39.28
2022-08-22T10:31:59.249Z,37.99
2022-08-22T10:32:48.394Z,37.30
2022-08-22T10:33:47.409Z,37.18
2022-08-22T10:34:47.400Z,37.08
2022-08-22T10:35:47.371Z,36.99
2022-08-22T10:36:47.361Z,37.38
2022-08-22T10:37:47.371Z,38.07
2022-08-22T10:38:47.335Z,38.24
2022-08-22T10:39:47.401Z,36.97
2022-08-22T10:40:47.645Z,36.38
2022-08-22T10:41:47.343Z,36.10
2022-08-22T10:42:47.309Z,36.00
2022-08-22T10:43:47.302Z,36.59
2022-08-22T10:44:47.297Z,36.02
2022-08-22T10:45:47.310Z,37.28
2022-08-22T10:46:48.285Z,36.99
2022-08-22T10:47:47.266Z,38.38
2022-08-22T10:48:47.256Z,36.88
2022-08-22T10:49:47.246Z,38.28
2022-08-22T10:50:47.265Z,37.81
2022-08-22T10:51:47.291Z,37.61
2022-08-22T10:52:47.213Z,38.70
2022-08-22T10:53:47.236Z,38.70
2022-08-22T10:54:47.192Z,38.40
2022-08-22T10:55:47.176Z,38.18
2022-08-22T10:56:47.193Z,38.18
2022-08-22T10:57:52.127Z,38.09
2022-08-22T10:58:49.178Z,38.07
2022-08-22T10:59:47.866Z,37.57
2022-08-22T11:00:49.986Z,36.80
2022-08-22T11:01:47.204Z,37.97
2022-08-22T11:02:47.113Z,37.87
2022-08-22T11:03:47.123Z,38.09
2022-08-22T11:04:47.099Z,38.18
2022-08-22T11:05:50.131Z,39.17
2022-08-22T11:06:47.091Z,37.30
2022-08-22T11:07:48.800Z,37.01
2022-08-22T11:08:47.060Z,36.13
2022-08-22T11:09:47.051Z,37.20
2022-08-22T11:10:47.051Z,37.20
2022-08-22T11:11:47.566Z,36.23
2022-08-22T11:12:47.045Z,37.10
2022-08-22T11:13:47.015Z,36.32
2022-08-22T11:14:47.012Z,38.09
2022-08-22T11:15:46.997Z,36.59
2022-08-22T11:16:47.012Z,36.32
2022-08-22T11:17:53.975Z,35.72
2022-08-22T11:19:02.705Z,36.04
2022-08-22T11:19:47.987Z,36.92
2022-08-22T11:20:46.952Z,35.74
2022-08-22T11:21:46.947Z,36.94
2022-08-22T11:22:47.214Z,35.94
2022-08-22T11:23:46.921Z,36.92
2022-08-22T11:24:56.424Z,36.90
2022-08-22T11:25:52.485Z,35.33
2022-08-22T11:26:47.939Z,36.02
2022-08-22T11:27:46.887Z,35.63
2022-08-22T11:28:46.890Z,35.92
2022-08-22T11:29:46.872Z,35.33
2022-08-22T11:30:46.890Z,34.74
2022-08-22T11:31:51.397Z,34.84
2022-08-22T11:32:46.859Z,35.03
2022-08-22T11:33:47.779Z,35.43
2022-08-22T11:34:46.821Z,34.54
2022-08-22T11:35:46.862Z,35.33
2022-08-22T11:36:46.809Z,35.92
2022-08-22T11:37:46.808Z,35.61
2022-08-22T11:38:46.798Z,34.05
2022-08-22T11:39:47.143Z,35.43
2022-08-22T11:40:46.774Z,34.06
2022-08-22T11:41:48.410Z,34.77
2022-08-22T11:42:47.877Z,35.97
2022-08-22T11:43:46.756Z,35.68
2022-08-22T11:44:50.823Z,36.07
2022-08-22T11:45:46.737Z,35.66
2022-08-22T11:46:46.733Z,34.46
2022-08-22T11:47:46.705Z,34.36
2022-08-22T11:48:48.670Z,33.77
2022-08-22T11:49:46.686Z,33.48
2022-08-22T11:50:46.677Z,34.36
2022-08-22T11:51:46.670Z,34.06
2022-08-22T11:52:51.752Z,34.36
2022-08-22T11:53:47.668Z,35.74
2022-08-22T11:54:46.641Z,33.87
2022-08-22T11:55:46.629Z,33.46
2022-08-22T11:56:46.641Z,34.15
2022-08-22T11:57:46.634Z,33.74
2022-08-22T11:58:46.609Z,33.34
2022-08-22T11:59:46.601Z,33.07
2022-08-22T12:00:46.603Z,34.64
2022-08-22T12:01:46.617Z,32.87
2022-08-22T12:02:47.497Z,34.03
2022-08-22T12:03:46.581Z,35.11
2022-08-22T12:04:47.641Z,33.86
2022-08-22T12:05:46.576Z,33.95
2022-08-22T12:06:46.773Z,33.95
2022-08-22T12:07:50.556Z,33.75
2022-08-22T12:08:47.516Z,34.25
2022-08-22T12:09:47.789Z,34.54
2022-08-22T12:10:46.532Z,35.21
2022-08-22T12:11:46.479Z,35.41
2022-08-22T12:12:46.552Z,35.51
2022-08-22T12:13:46.469Z,34.31
2022-08-22T12:14:46.480Z,35.10
2022-08-22T12:15:47.460Z,35.30
2022-08-22T12:16:47.513Z,35.30
2022-08-22T12:17:55.188Z,34.61
2022-08-22T12:18:47.433Z,34.51
2022-08-22T12:20:12.881Z,34.03
2022-08-22T12:20:48.420Z,34.25
2022-08-22T12:21:46.401Z,34.18
2022-08-22T12:22:49.786Z,34.00
2022-08-22T12:23:49.195Z,35.56
2022-08-22T12:24:46.436Z,34.56
2022-08-22T12:25:46.412Z,35.44
2022-08-22T12:26:46.356Z,33.86
2022-08-22T12:27:48.232Z,35.43
2022-08-22T12:28:46.339Z,33.95
2022-08-22T12:29:46.329Z,33.67
2022-08-22T12:30:46.346Z,33.58
2022-08-22T12:31:46.316Z,34.36
2022-08-22T12:32:46.297Z,34.36
2022-08-22T12:33:46.289Z,33.77
2022-08-22T12:34:46.283Z,34.94
2022-08-22T12:35:46.299Z,33.74
2022-08-22T12:36:46.271Z,33.46
2022-08-22T12:37:52.934Z,33.36
2022-08-22T12:38:46.239Z,33.26
2022-08-22T12:39:46.252Z,33.15
2022-08-22T12:40:46.248Z,35.21
2022-08-22T12:41:46.722Z,32.26
2022-08-22T12:42:46.281Z,32.86
2022-08-22T12:43:46.226Z,31.48
2022-08-22T12:44:46.215Z,30.49
2022-08-22T12:45:46.192Z,31.98